createdAt,value
2022-10-28T00:01:23.903Z,15.26
2022-10-28T00:03:55.431Z,15.26
2022-10-28T00:06:32.813Z,15.33
2022-10-28T00:09:00.425Z,15.21
2022-10-28T00:11:31.717Z,15.26
2022-10-28T00:14:02.697Z,15.22
2022-10-28T00:16:33.168Z,15.11
2022-10-28T00:19:02.292Z,15.16
2022-10-28T00:21:33.314Z,14.99
2022-10-28T00:24:00.706Z,15.02
2022-10-28T00:26:32.176Z,14.94
2022-10-28T00:29:29.011Z,15.05
2022-10-28T00:31:56.153Z,15.03
2022-10-28T00:34:25.402Z,15.07
2022-10-28T00:36:54.354Z,15.05
2022-10-28T00:39:25.083Z,15.02
2022-10-28T00:41:57.817Z,15.02
2022-10-28T00:44:49.412Z,14.97
2022-10-28T00:47:43.900Z,14.93
2022-10-28T00:50:23.319Z,14.94
2022-10-28T00:52:56.815Z,14.89
2022-10-28T00:55:24.636Z,14.82
2022-10-28T00:57:56.603Z,14.62
2022-10-28T01:00:25.532Z,14.57
2022-10-28T01:02:52.609Z,14.60
2022-10-28T01:05:27.661Z,14.64
2022-10-28T01:08:01.638Z,14.68
2022-10-28T01:11:03.987Z,14.58
2022-10-28T01:13:53.510Z,14.69
2022-10-28T01:17:18.033Z,14.74
2022-10-28T01:20:23.794Z,14.76
2022-10-28T01:23:23.457Z,14.79
2022-10-28T01:26:02.460Z,14.80
2022-10-28T01:28:48.520Z,14.77
2022-10-28T01:31:40.841Z,14.56
2022-10-28T01:34:33.788Z,14.68
2022-10-28T01:37:10.670Z,14.65
2022-10-28T01:39:58.128Z,14.55
2022-10-28T01:42:58.124Z,14.43
2022-10-28T01:45:34.764Z,14.40
2022-10-28T01:48:14.186Z,14.37
2022-10-28T01:50:46.695Z,14.39
2022-10-28T01:53:20.917Z,14.19
2022-10-28T01:55:54.669Z,14.33
2022-10-28T01:58:28.855Z,14.35
2022-10-28T02:01:00.008Z,14.26
2022-10-28T02:03:28.600Z,14.33
2022-10-28T02:05:58.169Z,14.28
2022-10-28T02:08:36.028Z,14.21
2022-10-28T02:14:49.450Z,14.06
2022-10-28T02:17:47.417Z,14.08
2022-10-28T02:20:22.080Z,14.03
2022-10-28T02:22:54.572Z,14.06
2022-10-28T02:25:28.999Z,14.04
2022-10-28T02:28:03.966Z,14.08
2022-10-28T02:31:06.451Z,14.20
2022-10-28T02:34:05.124Z,14.06
2022-10-28T02:36:38.058Z,14.13
2022-10-28T02:39:07.754Z,14.10
2022-10-28T02:41:43.653Z,13.83
2022-10-28T02:44:16.898Z,13.92
2022-10-28T02:46:47.482Z,13.92
2022-10-28T02:49:15.363Z,13.70
2022-10-28T02:51:49.028Z,13.76
2022-10-28T02:54:25.573Z,13.76
2022-10-28T02:57:10.964Z,13.70
2022-10-28T02:59:38.009Z,13.63
2022-10-28T03:02:05.345Z,13.65
2022-10-28T03:04:32.398Z,13.61
2022-10-28T03:06:59.665Z,13.70
2022-10-28T03:09:26.710Z,13.82
2022-10-28T03:11:54.354Z,13.94
2022-10-28T03:14:21.657Z,13.70
2022-10-28T03:16:48.709Z,13.82
2022-10-28T03:19:15.708Z,13.84
2022-10-28T03:21:42.705Z,13.99
2022-10-28T03:24:09.754Z,13.77
2022-10-28T03:26:36.788Z,13.83
2022-10-28T03:29:06.855Z,13.71
2022-10-28T03:31:34.163Z,13.67
2022-10-28T03:34:01.469Z,13.72
2022-10-28T03:36:28.763Z,13.92
2022-10-28T03:38:55.777Z,13.94
2022-10-28T03:41:23.013Z,13.82
2022-10-28T03:43:50.357Z,14.03
2022-10-28T03:46:17.352Z,13.97
2022-10-28T03:48:44.325Z,14.15
2022-10-28T03:51:11.321Z,14.04
2022-10-28T03:53:38.302Z,14.05
2022-10-28T03:56:05.965Z,14.20
2022-10-28T03:58:35.121Z,14.26
2022-10-28T04:01:04.761Z,14.30
2022-10-28T04:03:31.872Z,14.39
2022-10-28T04:05:58.976Z,14.37
2022-10-28T04:08:25.936Z,14.40
2022-10-28T04:10:52.904Z,14.43
2022-10-28T04:13:20.037Z,14.30
2022-10-28T04:15:47.022Z,14.30
2022-10-28T04:18:14.062Z,13.94
2022-10-28T04:20:41.412Z,13.80
2022-10-28T04:23:14.832Z,14.15
2022-10-28T04:25:42.282Z,14.20
2022-10-28T04:28:12.342Z,14.33
2022-10-28T04:30:39.500Z,14.43
2022-10-28T04:33:06.533Z,14.49
2022-10-28T04:35:33.495Z,14.58
2022-10-28T04:38:00.484Z,14.56
2022-10-28T04:40:27.456Z,14.52
2022-10-28T04:42:54.793Z,14.43
2022-10-28T04:45:22.020Z,14.54
2022-10-28T04:47:48.991Z,14.63
2022-10-28T04:50:16.078Z,14.65
2022-10-28T04:52:43.858Z,14.76
2022-10-28T04:55:10.816Z,14.72
2022-10-28T04:57:37.865Z,14.74
2022-10-28T05:00:05.714Z,14.78
2022-10-28T05:02:33.192Z,14.87
2022-10-28T05:05:03.406Z,14.77
2022-10-28T05:07:30.581Z,14.64
2022-10-28T05:09:57.585Z,14.83
2022-10-28T05:12:24.814Z,14.86
2022-10-28T05:14:53.177Z,14.94
2022-10-28T05:17:20.459Z,14.84
2022-10-28T05:19:47.617Z,14.52
2022-10-28T05:22:14.855Z,14.69
2022-10-28T05:24:41.838Z,14.48
2022-10-28T05:27:12.519Z,14.49
2022-10-28T05:29:39.909Z,14.56
2022-10-28T05:32:07.131Z,14.43
2022-10-28T05:34:34.509Z,14.40
2022-10-28T05:37:01.847Z,14.50
2022-10-28T05:39:29.239Z,14.32
2022-10-28T05:41:56.243Z,14.47
2022-10-28T05:44:49.119Z,14.54
2022-10-28T05:47:16.248Z,14.62
2022-10-28T05:49:43.240Z,14.68
2022-10-28T05:52:10.227Z,14.67
2022-10-28T05:54:37.327Z,14.77
2022-10-28T05:57:04.341Z,14.83
2022-10-28T05:59:31.391Z,14.63
2022-10-28T06:01:59.040Z,14.71
2022-10-28T06:04:26.785Z,14.73
2022-10-28T06:06:56.333Z,14.59
2022-10-28T06:09:23.674Z,14.62
2022-10-28T06:11:52.373Z,14.70
2022-10-28T06:14:19.517Z,14.61
2022-10-28T06:16:46.518Z,14.64
2022-10-28T06:19:13.760Z,14.76
2022-10-28T06:21:41.007Z,14.81
2022-10-28T06:24:12.295Z,14.82
2022-10-28T06:26:39.845Z,14.83
2022-10-28T06:29:09.481Z,14.86
2022-10-28T06:31:45.684Z,14.83
2022-10-28T06:34:13.896Z,14.78
2022-10-28T06:36:41.105Z,14.72
2022-10-28T06:39:08.113Z,14.80
2022-10-28T06:41:35.225Z,14.76
2022-10-28T06:44:02.361Z,14.81
2022-10-28T06:46:29.701Z,14.65
2022-10-28T06:48:58.440Z,14.61
2022-10-28T06:51:25.665Z,14.50
2022-10-28T06:53:52.913Z,14.74
2022-10-28T06:56:19.970Z,14.82
2022-10-28T06:58:52.080Z,14.72
2022-10-28T07:01:19.301Z,14.73
2022-10-28T07:03:47.436Z,14.65
2022-10-28T07:06:16.177Z,14.58
2022-10-28T07:08:43.201Z,14.63
2022-10-28T07:11:10.251Z,14.94
2022-10-28T07:13:37.312Z,14.62
2022-10-28T07:16:05.174Z,14.52
2022-10-28T07:18:32.605Z,14.64
2022-10-28T07:21:01.343Z,14.62
2022-10-28T07:23:31.505Z,14.81
2022-10-28T07:25:58.911Z,15.13
2022-10-28T07:28:27.318Z,15.14
2022-10-28T07:30:55.276Z,15.33
2022-10-28T07:33:22.915Z,15.66
2022-10-28T07:35:50.004Z,15.87
2022-10-28T07:38:17.117Z,15.95
2022-10-28T07:40:44.224Z,16.10
2022-10-28T07:43:11.575Z,16.33
2022-10-28T07:45:38.712Z,16.53
2022-10-28T07:48:06.680Z,16.14
2022-10-28T07:50:33.828Z,16.15
2022-10-28T07:53:01.029Z,16.38
2022-10-28T07:55:28.444Z,16.50
2022-10-28T07:57:56.009Z,16.75
2022-10-28T08:00:23.444Z,16.88
2022-10-28T08:02:50.856Z,17.04
2022-10-28T08:05:18.153Z,16.47
2022-10-28T08:07:46.798Z,16.54
2022-10-28T08:10:14.215Z,16.88
2022-10-28T08:12:41.280Z,16.83
2022-10-28T08:15:10.423Z,16.89
2022-10-28T08:17:37.488Z,16.97
2022-10-28T08:20:06.634Z,17.35
2022-10-28T08:22:34.101Z,17.55
2022-10-28T08:25:01.589Z,17.67
2022-10-28T08:27:28.910Z,17.50
2022-10-28T08:29:56.382Z,17.01
2022-10-28T08:32:24.043Z,17.45
2022-10-28T08:34:51.207Z,17.52
2022-10-28T08:37:18.823Z,17.61
2022-10-28T08:39:46.015Z,17.81
2022-10-28T08:42:43.091Z,17.78
2022-10-28T08:46:13.390Z,17.76
2022-10-28T08:48:41.870Z,17.72
2022-10-28T08:51:22.858Z,18.11
2022-10-28T08:53:57.960Z,18.35
2022-10-28T08:56:46.037Z,18.58
2022-10-28T08:59:29.118Z,18.77
2022-10-28T09:02:24.502Z,18.52
2022-10-28T09:05:14.730Z,18.73
2022-10-28T09:07:41.845Z,18.92
2022-10-28T09:10:15.741Z,18.85
2022-10-28T09:12:59.723Z,19.20
2022-10-28T09:16:08.564Z,19.02
2022-10-28T09:18:52.673Z,19.44
2022-10-28T09:21:25.078Z,19.22
2022-10-28T09:24:04.562Z,19.40
2022-10-28T09:26:54.833Z,19.39
2022-10-28T09:29:22.011Z,19.48
2022-10-28T09:32:10.125Z,19.69
2022-10-28T09:34:50.500Z,19.90
2022-10-28T09:37:20.616Z,19.67
2022-10-28T09:39:56.395Z,20.01
2022-10-28T09:42:35.251Z,20.27
2022-10-28T09:45:14.761Z,20.48
2022-10-28T09:47:50.857Z,20.70
2022-10-28T09:50:24.048Z,19.86
2022-10-28T09:53:13.118Z,19.87
2022-10-28T09:55:40.212Z,19.41
2022-10-28T09:58:07.301Z,19.31
2022-10-28T10:00:34.329Z,18.55
2022-10-28T10:03:02.954Z,19.10
2022-10-28T10:05:33.470Z,19.47
2022-10-28T10:08:05.684Z,19.80
2022-10-28T10:10:39.925Z,19.72
2022-10-28T10:13:09.079Z,19.95
2022-10-28T10:15:42.750Z,20.38
2022-10-28T10:18:17.400Z,20.83
2022-10-28T10:20:55.896Z,21.10
2022-10-28T10:26:16.313Z,20.83
2022-10-28T10:28:49.711Z,21.01
2022-10-28T10:31:18.792Z,21.20
2022-10-28T10:33:51.336Z,21.50
2022-10-28T10:36:23.458Z,21.64
2022-10-28T10:38:56.345Z,22.09
2022-10-28T10:41:43.281Z,22.14
2022-10-28T10:44:22.348Z,22.40
2022-10-28T10:46:55.414Z,22.22
2022-10-28T10:49:23.082Z,22.52
2022-10-28T10:51:57.376Z,22.41
2022-10-28T10:54:32.158Z,22.41
2022-10-28T10:57:18.632Z,22.39
2022-10-28T10:59:49.343Z,22.52
2022-10-28T11:02:25.037Z,22.47
2022-10-28T11:05:00.464Z,22.38
2022-10-28T11:07:29.255Z,22.31
2022-10-28T11:09:56.286Z,21.90
2022-10-28T11:12:36.776Z,21.02
2022-10-28T11:15:15.955Z,21.98
2022-10-28T11:17:55.659Z,21.98
2022-10-28T11:20:34.817Z,22.49
2022-10-28T11:23:40.051Z,22.48
2022-10-28T11:26:15.891Z,22.92
2022-10-28T11:29:10.049Z,23.44
2022-10-28T11:32:09.432Z,23.55
2022-10-28T11:35:21.084Z,23.81
2022-10-28T11:38:16.811Z,23.84
2022-10-28T11:41:01.164Z,23.53
2022-10-28T11:43:54.351Z,23.73
2022-10-28T11:47:00.855Z,23.99
2022-10-28T11:49:59.195Z,24.22
2022-10-28T11:52:57.191Z,24.37
2022-10-28T11:56:11.480Z,24.52
2022-10-28T11:58:58.024Z,24.55
2022-10-28T12:01:46.867Z,24.70
2022-10-28T12:04:35.746Z,24.49
2022-10-28T12:07:17.858Z,25.38
2022-10-28T12:10:05.910Z,25.28
2022-10-28T12:12:59.732Z,25.18
2022-10-28T12:15:44.221Z,24.90
2022-10-28T12:18:20.641Z,24.90
2022-10-28T12:21:20.456Z,24.99
2022-10-28T12:23:49.281Z,24.42
2022-10-28T12:26:19.517Z,24.89
2022-10-28T12:28:55.660Z,24.93
2022-10-28T12:31:29.004Z,24.29
2022-10-28T12:33:59.445Z,24.88
2022-10-28T12:36:38.582Z,26.03
2022-10-28T12:39:13.006Z,26.42
2022-10-28T12:42:27.503Z,26.85
2022-10-28T12:44:58.732Z,27.67
2022-10-28T12:47:44.763Z,28.04
2022-10-28T12:50:27.343Z,28.77
2022-10-28T12:53:03.705Z,30.25
2022-10-28T12:55:39.877Z,31.16
2022-10-28T12:58:35.091Z,32.13
2022-10-28T13:01:17.997Z,32.96
2022-10-28T13:03:45.180Z,32.97
2022-10-28T13:06:39.879Z,33.03
2022-10-28T13:09:33.267Z,33.06
2022-10-28T13:12:30.247Z,34.13
2022-10-28T13:15:37.663Z,34.66
2022-10-28T13:18:43.665Z,35.11
2022-10-28T13:21:41.276Z,34.63
2022-10-28T13:24:36.264Z,34.57
2022-10-28T13:27:05.473Z,34.14
2022-10-28T13:29:34.963Z,34.86
2022-10-28T13:32:02.381Z,35.84
2022-10-28T13:34:40.982Z,36.72
2022-10-28T13:37:21.322Z,35.79
2022-10-28T13:39:48.552Z,36.32
2022-10-28T13:42:23.157Z,36.35
2022-10-28T13:45:01.173Z,36.76
2022-10-28T13:47:36.284Z,36.92
2022-10-28T13:50:06.593Z,36.99
2022-10-28T13:52:42.208Z,35.74
2022-10-28T13:55:43.466Z,34.15
2022-10-28T13:58:24.787Z,33.31
2022-10-28T14:00:53.738Z,32.44
2022-10-28T14:03:30.311Z,31.70
2022-10-28T14:05:59.730Z,30.97
2022-10-28T14:08:34.176Z,31.79
2022-10-28T14:11:08.721Z,30.65
2022-10-28T14:13:41.814Z,29.36
2022-10-28T14:16:38.469Z,29.86
2022-10-28T14:19:20.001Z,30.73
2022-10-28T14:21:59.198Z,31.50
2022-10-28T14:24:36.539Z,31.29
2022-10-28T14:27:06.693Z,30.94
2022-10-28T14:30:11.756Z,29.34
2022-10-28T14:32:51.850Z,29.01
2022-10-28T14:35:22.028Z,28.96
2022-10-28T14:38:31.056Z,29.06
2022-10-28T14:41:44.015Z,28.87
2022-10-28T14:44:54.791Z,28.33
2022-10-28T14:47:49.555Z,27.79
2022-10-28T14:50:23.501Z,27.99
2022-10-28T14:52:53.829Z,28.06
2022-10-28T14:55:32.579Z,28.07
2022-10-28T14:58:20.871Z,27.98
2022-10-28T15:01:16.115Z,27.95
2022-10-28T15:03:50.175Z,27.97
2022-10-28T15:06:39.115Z,27.81
2022-10-28T15:09:28.165Z,27.57
2022-10-28T15:12:05.677Z,27.44
2022-10-28T15:14:36.647Z,27.17
2022-10-28T15:17:39.256Z,26.91
2022-10-28T15:20:23.512Z,26.77
2022-10-28T15:22:51.923Z,26.61
2022-10-28T15:25:22.972Z,26.45
2022-10-28T15:27:54.106Z,26.43
2022-10-28T15:30:26.400Z,26.09
2022-10-28T15:32:55.447Z,26.11
2022-10-28T15:35:38.877Z,25.78
2022-10-28T15:38:26.467Z,26.07
2022-10-28T15:40:53.785Z,25.82
2022-10-28T15:43:28.582Z,25.13
2022-10-28T15:46:15.177Z,25.23
2022-10-28T15:48:42.405Z,25.16
2022-10-28T15:51:18.821Z,25.21
2022-10-28T15:53:54.223Z,25.01
2022-10-28T15:56:25.914Z,24.76
2022-10-28T15:58:59.113Z,24.88
2022-10-28T16:01:38.112Z,24.20
2022-10-28T16:04:26.243Z,23.99
2022-10-28T16:06:57.880Z,23.65
2022-10-28T16:09:41.847Z,23.42
2022-10-28T16:12:19.428Z,23.62
2022-10-28T16:15:05.429Z,23.61
2022-10-28T16:17:36.533Z,23.62
2022-10-28T16:20:18.470Z,23.59
2022-10-28T16:22:46.546Z,23.53
2022-10-28T16:25:20.547Z,23.44
2022-10-28T16:27:49.576Z,23.38
2022-10-28T16:30:17.105Z,23.29
2022-10-28T16:32:47.397Z,23.03
2022-10-28T16:35:21.027Z,22.82
2022-10-28T16:37:54.764Z,22.85
2022-10-28T16:40:50.934Z,22.81
2022-10-28T16:43:23.563Z,22.72
2022-10-28T16:45:53.140Z,22.57
2022-10-28T16:48:23.823Z,22.55
2022-10-28T16:50:57.273Z,22.49
2022-10-28T16:53:25.362Z,22.39
2022-10-28T16:55:58.696Z,22.26
2022-10-28T16:58:28.283Z,22.22
2022-10-28T17:00:56.585Z,21.92
2022-10-28T17:03:23.645Z,21.92
2022-10-28T17:05:50.647Z,21.76
2022-10-28T17:08:26.456Z,21.56
2022-10-28T17:11:05.107Z,21.71
2022-10-28T17:13:33.969Z,21.58
2022-10-28T17:16:01.005Z,21.42
2022-10-28T17:18:28.031Z,21.56
2022-10-28T17:21:03.154Z,21.50
2022-10-28T17:23:30.682Z,21.38
2022-10-28T17:25:59.255Z,21.22
2022-10-28T17:28:26.618Z,21.09
2022-10-28T17:30:54.456Z,20.82
2022-10-28T17:33:21.816Z,20.93
2022-10-28T17:35:49.076Z,20.83
2022-10-28T17:38:16.399Z,20.74
2022-10-28T17:40:43.623Z,20.66
2022-10-28T17:43:10.663Z,20.64
2022-10-28T17:45:37.892Z,20.53
2022-10-28T17:48:05.139Z,20.29
2022-10-28T17:50:32.165Z,20.42
2022-10-28T17:52:59.197Z,20.38
2022-10-28T17:55:26.208Z,20.19
2022-10-28T17:57:53.504Z,19.90
2022-10-28T18:00:20.900Z,19.94
2022-10-28T18:02:48.163Z,20.02
2022-10-28T18:05:15.523Z,19.96
2022-10-28T18:07:42.571Z,19.81
2022-10-28T18:10:09.888Z,19.72
2022-10-28T18:12:36.918Z,19.54
2022-10-28T18:15:05.459Z,19.21
2022-10-28T18:17:32.687Z,19.21
2022-10-28T18:20:01.518Z,19.33
2022-10-28T18:22:28.588Z,19.43
2022-10-28T18:24:56.608Z,19.33
2022-10-28T18:27:24.106Z,19.33
2022-10-28T18:29:51.228Z,19.28
2022-10-28T18:32:18.324Z,19.30
2022-10-28T18:34:45.657Z,19.34
2022-10-28T18:37:13.081Z,19.31
2022-10-28T18:39:40.517Z,19.26
2022-10-28T18:42:09.691Z,18.72
2022-10-28T18:44:39.156Z,18.78
2022-10-28T18:47:07.073Z,18.60
2022-10-28T18:49:34.059Z,18.57
2022-10-28T18:52:01.092Z,18.61
2022-10-28T18:54:28.098Z,18.23
2022-10-28T18:56:57.551Z,18.48
2022-10-28T18:59:24.891Z,18.47
2022-10-28T19:01:51.973Z,18.55
2022-10-28T19:04:19.061Z,18.51
2022-10-28T19:06:46.659Z,18.62
2022-10-28T19:09:13.697Z,18.42
2022-10-28T19:11:40.707Z,18.20
2022-10-28T19:14:08.386Z,18.20
2022-10-28T19:16:36.077Z,18.34
2022-10-28T19:19:04.733Z,18.46
2022-10-28T19:21:32.836Z,18.52
2022-10-28T19:24:00.332Z,18.35
2022-10-28T19:26:27.808Z,18.38
2022-10-28T19:28:55.151Z,18.45
2022-10-28T19:31:25.230Z,18.47
2022-10-28T19:33:54.417Z,18.51
2022-10-28T19:36:26.870Z,18.49
2022-10-28T19:38:55.614Z,18.23
2022-10-28T19:41:26.399Z,18.18
2022-10-28T19:43:58.166Z,18.16
2022-10-28T19:46:28.665Z,18.13
2022-10-28T19:48:59.217Z,18.20
2022-10-28T19:51:29.657Z,18.31
2022-10-28T19:54:03.548Z,18.03
2022-10-28T19:56:33.258Z,17.90
2022-10-28T19:59:02.607Z,17.76
2022-10-28T20:01:34.602Z,17.85
2022-10-28T20:04:02.378Z,17.84
2022-10-28T20:06:35.856Z,17.83
2022-10-28T20:09:04.014Z,17.87
2022-10-28T20:11:34.757Z,17.87
2022-10-28T20:14:05.873Z,17.85
2022-10-28T20:16:33.649Z,17.61
2022-10-28T20:19:00.772Z,17.61
2022-10-28T20:21:31.323Z,17.35
2022-10-28T20:23:58.579Z,17.41
2022-10-28T20:26:29.570Z,17.42
2022-10-28T20:28:58.196Z,17.46
2022-10-28T20:31:28.464Z,17.40
2022-10-28T20:33:59.654Z,17.14
2022-10-28T20:36:35.402Z,17.15
2022-10-28T20:39:04.837Z,17.27
2022-10-28T20:41:35.876Z,17.29
2022-10-28T20:44:04.417Z,17.23
2022-10-28T20:46:32.598Z,17.21
2022-10-28T20:49:00.831Z,17.20
2022-10-28T20:51:30.993Z,17.25
2022-10-28T20:53:58.665Z,17.17
2022-10-28T20:56:28.716Z,17.10
2022-10-28T20:58:57.568Z,16.93
2022-10-28T21:01:48.236Z,16.87
2022-10-28T21:04:15.359Z,16.92
2022-10-28T21:06:42.417Z,16.89
2022-10-28T21:09:09.589Z,16.86
2022-10-28T21:11:36.571Z,16.64
2022-10-28T21:14:03.685Z,16.70
2022-10-28T21:16:30.751Z,16.66
2022-10-28T21:18:59.217Z,16.69
2022-10-28T21:21:28.068Z,16.60
2022-10-28T21:23:55.414Z,16.67
2022-10-28T21:26:22.805Z,16.66
2022-10-28T21:28:52.200Z,16.61
2022-10-28T21:31:21.143Z,16.49
2022-10-28T21:36:20.213Z,16.53
2022-10-28T21:38:48.077Z,16.51
2022-10-28T21:41:18.786Z,16.51
2022-10-28T21:43:49.495Z,16.52
2022-10-28T21:46:18.242Z,16.55
2022-10-28T21:48:45.628Z,16.53
2022-10-28T21:51:15.515Z,16.51
2022-10-28T21:53:44.713Z,16.48
2022-10-28T21:56:19.252Z,16.47
2022-10-28T21:58:49.554Z,16.48
2022-10-28T22:01:25.810Z,16.46
2022-10-28T22:03:55.504Z,16.45
2022-10-28T22:06:22.772Z,16.43
2022-10-28T22:08:53.436Z,16.35
2022-10-28T22:11:23.220Z,15.99
2022-10-28T22:14:03.185Z,16.16
2022-10-28T22:16:33.673Z,16.18
2022-10-28T22:19:04.695Z,16.19
2022-10-28T22:21:35.999Z,16.21
2022-10-28T22:24:03.334Z,16.13
2022-10-28T22:26:31.935Z,16.19
2022-10-28T22:29:00.258Z,16.07
2022-10-28T22:31:31.358Z,15.88
2022-10-28T22:33:59.553Z,16.03
2022-10-28T22:36:29.389Z,16.07
2022-10-28T22:38:57.698Z,16.12
2022-10-28T22:41:30.596Z,16.10
2022-10-28T22:44:00.548Z,16.08
2022-10-28T22:46:31.675Z,16.14
2022-10-28T22:48:58.845Z,16.11
2022-10-28T22:51:25.885Z,16.14
2022-10-28T22:53:53.083Z,16.06
2022-10-28T22:56:23.833Z,16.08
2022-10-28T22:58:57.719Z,16.03
2022-10-28T23:01:26.908Z,16.02
2022-10-28T23:03:55.292Z,15.95
2022-10-28T23:06:25.593Z,15.93
2022-10-28T23:08:53.339Z,15.57
2022-10-28T23:11:21.666Z,15.77
2022-10-28T23:13:53.970Z,15.81
2022-10-28T23:16:22.818Z,15.68
2022-10-28T23:18:50.255Z,15.75
2022-10-28T23:21:23.772Z,15.75
2022-10-28T23:23:57.554Z,15.81
2022-10-28T23:26:27.249Z,15.76
2022-10-28T23:28:57.421Z,15.53
2022-10-28T23:31:26.874Z,15.55
2022-10-28T23:33:55.093Z,15.48
2022-10-28T23:36:23.096Z,15.51
2022-10-28T23:38:50.462Z,15.53
2022-10-28T23:41:18.880Z,15.51
2022-10-28T23:43:47.334Z,15.43
2022-10-28T23:46:14.673Z,15.46
2022-10-28T23:48:42.191Z,15.49
2022-10-28T23:51:09.444Z,15.43
2022-10-28T23:53:37.943Z,15.47
2022-10-28T23:56:06.033Z,15.44
2022-10-28T23:58:33.315Z,15.45
